createdAt,value
2023-04-29T00:03:35.781Z,95001.00
2023-04-29T00:04:36.676Z,95005.00
2023-04-29T00:05:36.481Z,95007.00
2023-04-29T00:06:36.439Z,95007.00
2023-04-29T00:07:36.472Z,95009.00
2023-04-29T00:08:36.488Z,95013.00
2023-04-29T00:09:36.554Z,95017.00
2023-04-29T00:10:36.604Z,95013.00
2023-04-29T00:11:36.644Z,95015.00
2023-04-29T00:12:36.684Z,95015.00
2023-04-29T00:13:36.705Z,95017.00
2023-04-29T00:14:36.742Z,95011.00
2023-04-29T00:15:36.780Z,95011.00
2023-04-29T00:16:36.857Z,95011.00
2023-04-29T00:17:36.922Z,95009.00
2023-04-29T00:18:36.886Z,95009.00
2023-04-29T00:19:36.949Z,95009.00
2023-04-29T00:20:36.904Z,95009.00
2023-04-29T00:21:36.914Z,95009.00
2023-04-29T00:22:36.913Z,95015.00
2023-04-29T00:23:36.917Z,95015.00
2023-04-29T00:24:36.944Z,95015.00
2023-04-29T00:25:36.944Z,95015.00
2023-04-29T00:26:36.947Z,95015.00
2023-04-29T00:27:36.955Z,95015.00
2023-04-29T00:28:36.975Z,95017.00
2023-04-29T00:29:36.969Z,95021.00
2023-04-29T00:30:36.995Z,95025.00
2023-04-29T00:31:37.041Z,95023.00
2023-04-29T00:32:37.003Z,95023.00
2023-04-29T00:33:37.015Z,95023.00
2023-04-29T00:34:36.995Z,95021.00
2023-04-29T00:35:37.024Z,95019.00
2023-04-29T00:36:37.007Z,95023.00
2023-04-29T00:37:37.016Z,95023.00
2023-04-29T00:38:37.015Z,95025.00
2023-04-29T00:39:37.044Z,95025.00
2023-04-29T00:40:37.042Z,95023.00
2023-04-29T00:41:37.041Z,95017.00
2023-04-29T00:42:37.049Z,95015.00
2023-04-29T00:43:37.073Z,95011.00
2023-04-29T00:44:37.064Z,95011.00
2023-04-29T00:45:37.071Z,95009.00
2023-04-29T00:46:37.111Z,95007.00
2023-04-29T00:47:37.105Z,95007.00
2023-04-29T00:48:37.080Z,95005.00
2023-04-29T00:49:37.091Z,95007.00
2023-04-29T00:50:37.097Z,95009.00
2023-04-29T00:51:37.137Z,95005.00
2023-04-29T00:52:37.119Z,95003.00
2023-04-29T00:53:37.116Z,95003.00
2023-04-29T00:54:37.132Z,95001.00
2023-04-29T00:55:37.122Z,94997.00
2023-04-29T00:56:37.130Z,94999.00
2023-04-29T00:57:37.129Z,94993.00
2023-04-29T00:58:37.134Z,94995.00
2023-04-29T00:59:37.142Z,94995.00
2023-04-29T01:00:37.136Z,94995.00
2023-04-29T01:01:37.215Z,94995.00
2023-04-29T01:02:37.270Z,94997.00
2023-04-29T01:03:37.357Z,94999.00
2023-04-29T01:04:37.175Z,95001.00
2023-04-29T01:05:37.160Z,95003.00
2023-04-29T01:06:37.169Z,95007.00
2023-04-29T01:07:37.294Z,95009.00
2023-04-29T01:08:37.172Z,95013.00
2023-04-29T01:09:37.200Z,95013.00
2023-04-29T01:10:37.189Z,95011.00
2023-04-29T01:11:37.188Z,95013.00
2023-04-29T01:12:37.187Z,95009.00
2023-04-29T01:13:37.192Z,95013.00
2023-04-29T01:14:37.201Z,95015.00
2023-04-29T01:15:37.256Z,95013.00
2023-04-29T01:16:37.321Z,95011.00
2023-04-29T01:17:37.267Z,95009.00
2023-04-29T01:18:37.208Z,95003.00
2023-04-29T01:19:37.201Z,95003.00
2023-04-29T01:20:37.216Z,95001.00
2023-04-29T01:21:37.205Z,95005.00
2023-04-29T01:22:37.210Z,95003.00
2023-04-29T01:23:37.239Z,94997.00
2023-04-29T01:24:37.224Z,94995.00
2023-04-29T01:25:37.233Z,94993.00
2023-04-29T01:26:37.237Z,94993.00
2023-04-29T01:27:37.223Z,94989.00
2023-04-29T01:28:37.216Z,94989.00
2023-04-29T01:29:37.218Z,94985.00
2023-04-29T01:30:37.220Z,94983.00
2023-04-29T01:31:37.281Z,94982.00
2023-04-29T01:32:37.236Z,94980.00
2023-04-29T01:33:37.213Z,94980.00
2023-04-29T01:34:37.224Z,94976.00
2023-04-29T01:35:37.214Z,94976.00
2023-04-29T01:36:37.215Z,94970.00
2023-04-29T01:37:37.225Z,94968.00
2023-04-29T01:38:37.220Z,94966.00
2023-04-29T01:39:37.252Z,94968.00
2023-04-29T01:40:37.214Z,94968.00
2023-04-29T01:41:37.201Z,94968.00
2023-04-29T01:42:37.890Z,94964.00
2023-04-29T01:43:37.205Z,94964.00
2023-04-29T01:44:37.207Z,94964.00
2023-04-29T01:45:37.278Z,94968.00
2023-04-29T01:46:37.258Z,94968.00
2023-04-29T01:47:37.221Z,94964.00
2023-04-29T01:48:37.196Z,94966.00
2023-04-29T01:49:37.198Z,94960.00
2023-04-29T01:50:37.225Z,94960.00
2023-04-29T01:51:37.200Z,94960.00
2023-04-29T01:52:37.181Z,94958.00
2023-04-29T01:53:37.195Z,94956.00
2023-04-29T01:54:37.179Z,94956.00
2023-04-29T01:55:37.201Z,94956.00
2023-04-29T01:56:37.183Z,94956.00
2023-04-29T01:57:37.182Z,94956.00
2023-04-29T01:58:37.186Z,94954.00
2023-04-29T01:59:37.188Z,94956.00
2023-04-29T02:00:37.224Z,94954.00
2023-04-29T02:01:37.206Z,94956.00
2023-04-29T02:02:37.397Z,94952.00
2023-04-29T02:03:37.289Z,94952.00
2023-04-29T02:04:37.266Z,94950.00
2023-04-29T02:05:37.213Z,94948.00
2023-04-29T02:06:37.187Z,94948.00
2023-04-29T02:07:37.178Z,94946.00
2023-04-29T02:08:37.186Z,94940.00
2023-04-29T02:09:37.188Z,94940.00
2023-04-29T02:10:37.186Z,94938.00
2023-04-29T02:11:37.206Z,94936.00
2023-04-29T02:12:37.188Z,94938.00
2023-04-29T02:13:37.192Z,94942.00
2023-04-29T02:14:38.078Z,94944.00
2023-04-29T02:15:37.200Z,94944.00
2023-04-29T02:16:37.250Z,94948.00
2023-04-29T02:17:37.243Z,94952.00
2023-04-29T02:18:37.199Z,94952.00
2023-04-29T02:19:37.185Z,94950.00
2023-04-29T02:20:37.181Z,94944.00
2023-04-29T02:21:37.182Z,94946.00
2023-04-29T02:22:37.168Z,94946.00
2023-04-29T02:23:37.182Z,94944.00
2023-04-29T02:24:37.173Z,94942.00
2023-04-29T02:25:37.188Z,94944.00
2023-04-29T02:26:37.174Z,94944.00
2023-04-29T02:27:37.188Z,94946.00
2023-04-29T02:28:37.165Z,94948.00
2023-04-29T02:29:37.179Z,94948.00
2023-04-29T02:30:37.161Z,94944.00
2023-04-29T02:31:37.173Z,94944.00
2023-04-29T02:32:37.179Z,94944.00
2023-04-29T02:33:37.143Z,94944.00
2023-04-29T02:34:37.142Z,94946.00
2023-04-29T02:35:37.149Z,94946.00
2023-04-29T02:36:37.146Z,94946.00
2023-04-29T02:37:37.146Z,94942.00
2023-04-29T02:38:37.144Z,94938.00
2023-04-29T02:39:37.141Z,94938.00
2023-04-29T02:40:37.162Z,94935.00
2023-04-29T02:41:37.130Z,94936.00
2023-04-29T02:42:37.126Z,94940.00
2023-04-29T02:43:37.239Z,94942.00
2023-04-29T02:44:37.125Z,94946.00
2023-04-29T02:45:37.160Z,94946.00
2023-04-29T02:46:37.123Z,94944.00
2023-04-29T02:47:37.137Z,94942.00
2023-04-29T02:48:37.117Z,94944.00
2023-04-29T02:49:37.113Z,94944.00
2023-04-29T02:50:37.126Z,94942.00
2023-04-29T02:51:37.119Z,94944.00
2023-04-29T02:52:37.104Z,94946.00
2023-04-29T02:53:37.101Z,94942.00
2023-04-29T02:54:37.100Z,94944.00
2023-04-29T02:55:37.098Z,94944.00
2023-04-29T02:56:37.104Z,94944.00
2023-04-29T02:57:37.093Z,94942.00
2023-04-29T02:58:37.097Z,94942.00
2023-04-29T02:59:37.210Z,94940.00
2023-04-29T03:00:37.103Z,94936.00
2023-04-29T03:01:37.105Z,94936.00
2023-04-29T03:02:37.170Z,94936.00
2023-04-29T03:03:37.208Z,94938.00
2023-04-29T03:04:37.095Z,94935.00
2023-04-29T03:05:37.095Z,94935.00
2023-04-29T03:06:37.102Z,94936.00
2023-04-29T03:07:37.094Z,94938.00
2023-04-29T03:08:37.097Z,94940.00
2023-04-29T03:09:37.090Z,94936.00
2023-04-29T03:10:38.191Z,94938.00
2023-04-29T03:11:37.089Z,94938.00
2023-04-29T03:12:37.077Z,94935.00
2023-04-29T03:13:37.068Z,94933.00
2023-04-29T03:14:37.076Z,94931.00
2023-04-29T03:15:37.081Z,94935.00
2023-04-29T03:16:37.081Z,94936.00
2023-04-29T03:17:37.074Z,94933.00
2023-04-29T03:18:37.037Z,94931.00
2023-04-29T03:19:37.029Z,94933.00
2023-04-29T03:20:37.031Z,94933.00
2023-04-29T03:21:37.436Z,94933.00
2023-04-29T03:22:37.028Z,94933.00
2023-04-29T03:23:36.996Z,94931.00
2023-04-29T03:24:36.993Z,94929.00
2023-04-29T03:25:37.160Z,94933.00
2023-04-29T03:26:37.018Z,94935.00
2023-04-29T03:27:37.003Z,94936.00
2023-04-29T03:28:36.978Z,94938.00
2023-04-29T03:29:36.972Z,94944.00
2023-04-29T03:30:36.958Z,94948.00
2023-04-29T03:31:36.989Z,94954.00
2023-04-29T03:32:37.057Z,94954.00
2023-04-29T03:33:36.937Z,94956.00
2023-04-29T03:34:36.939Z,94956.00
2023-04-29T03:35:36.927Z,94950.00
2023-04-29T03:36:36.927Z,94948.00
2023-04-29T03:37:36.914Z,94950.00
2023-04-29T03:38:36.898Z,94946.00
2023-04-29T03:39:36.896Z,94946.00
2023-04-29T03:40:36.895Z,94946.00
2023-04-29T03:41:36.882Z,94950.00
2023-04-29T03:42:36.885Z,94946.00
2023-04-29T03:43:36.867Z,94948.00
2023-04-29T03:44:36.872Z,94946.00
2023-04-29T03:45:36.857Z,94944.00
2023-04-29T03:46:36.915Z,94944.00
2023-04-29T03:47:36.931Z,94940.00
2023-04-29T03:48:36.838Z,94938.00
2023-04-29T03:49:36.827Z,94935.00
2023-04-29T03:50:36.838Z,94936.00
2023-04-29T03:51:36.815Z,94936.00
2023-04-29T03:52:36.810Z,94936.00
2023-04-29T03:53:36.800Z,94931.00
2023-04-29T03:54:36.787Z,94933.00
2023-04-29T03:55:36.779Z,94931.00
2023-04-29T03:56:36.770Z,94935.00
2023-04-29T03:57:36.775Z,94931.00
2023-04-29T03:58:36.770Z,94927.00
2023-04-29T03:59:36.768Z,94927.00
2023-04-29T04:00:36.752Z,94927.00
2023-04-29T04:01:36.763Z,94925.00
2023-04-29T04:02:36.925Z,94929.00
2023-04-29T04:03:36.852Z,94929.00
2023-04-29T04:04:36.907Z,94931.00
2023-04-29T04:05:36.719Z,94933.00
2023-04-29T04:06:36.731Z,94936.00
2023-04-29T04:07:36.717Z,94936.00
2023-04-29T04:08:36.711Z,94940.00
2023-04-29T04:09:36.692Z,94942.00
2023-04-29T04:10:36.680Z,94940.00
2023-04-29T04:11:36.692Z,94936.00
2023-04-29T04:12:36.679Z,94933.00
2023-04-29T04:13:36.663Z,94933.00
2023-04-29T04:14:36.666Z,94931.00
2023-04-29T04:15:36.650Z,94933.00
2023-04-29T04:16:36.753Z,94935.00
2023-04-29T04:17:36.662Z,94935.00
2023-04-29T04:18:36.643Z,94936.00
2023-04-29T04:19:36.659Z,94936.00
2023-04-29T04:20:36.616Z,94938.00
2023-04-29T04:21:36.615Z,94946.00
2023-04-29T04:22:36.615Z,94946.00
2023-04-29T04:23:36.601Z,94948.00
2023-04-29T04:24:36.595Z,94948.00
2023-04-29T04:25:36.584Z,94946.00
2023-04-29T04:26:36.577Z,94940.00
2023-04-29T04:27:36.599Z,94942.00
2023-04-29T04:28:36.581Z,94938.00
2023-04-29T04:29:36.584Z,94935.00
2023-04-29T04:30:36.596Z,94929.00
2023-04-29T04:31:36.606Z,94931.00
2023-04-29T04:32:36.648Z,94933.00
2023-04-29T04:33:36.591Z,94933.00
2023-04-29T04:34:36.586Z,94933.00
2023-04-29T04:35:36.612Z,94936.00
2023-04-29T04:36:36.599Z,94936.00
2023-04-29T04:37:36.640Z,94940.00
2023-04-29T04:38:36.596Z,94940.00
2023-04-29T04:39:36.607Z,94938.00
2023-04-29T04:40:36.594Z,94940.00
2023-04-29T04:41:36.589Z,94940.00
2023-04-29T04:42:36.592Z,94938.00
2023-04-29T04:43:36.593Z,94942.00
2023-04-29T04:44:36.593Z,94942.00
2023-04-29T04:45:36.648Z,94944.00
2023-04-29T04:46:36.595Z,94946.00
2023-04-29T04:47:36.623Z,94950.00
2023-04-29T04:48:36.601Z,94952.00
2023-04-29T04:49:36.597Z,94952.00
2023-04-29T04:50:36.607Z,94952.00
2023-04-29T04:51:36.622Z,94952.00
2023-04-29T04:52:36.601Z,94950.00
2023-04-29T04:53:36.599Z,94946.00
2023-04-29T04:54:36.618Z,94944.00
2023-04-29T04:55:36.604Z,94940.00
2023-04-29T04:56:36.604Z,94946.00
2023-04-29T04:57:36.617Z,94950.00
2023-04-29T04:58:36.600Z,94952.00
2023-04-29T04:59:36.608Z,94950.00
2023-04-29T05:00:36.600Z,94950.00
2023-04-29T05:01:36.718Z,94950.00
2023-04-29T05:02:36.810Z,94952.00
2023-04-29T05:03:36.833Z,94952.00
2023-04-29T05:04:36.611Z,94954.00
2023-04-29T05:05:36.603Z,94952.00
2023-04-29T05:06:36.608Z,94954.00
2023-04-29T05:07:36.659Z,94956.00
2023-04-29T05:08:36.618Z,94956.00
2023-04-29T05:09:36.616Z,94954.00
2023-04-29T05:10:36.616Z,94954.00
2023-04-29T05:11:36.629Z,94954.00
2023-04-29T05:12:36.622Z,94956.00
2023-04-29T05:13:36.611Z,94956.00
2023-04-29T05:14:36.618Z,94954.00
2023-04-29T05:15:36.617Z,94952.00
2023-04-29T05:16:36.653Z,94952.00
2023-04-29T05:17:36.775Z,94952.00
2023-04-29T05:18:36.611Z,94950.00
2023-04-29T05:19:36.608Z,94952.00
2023-04-29T05:20:36.578Z,94956.00
2023-04-29T05:21:36.580Z,94958.00
2023-04-29T05:22:36.580Z,94958.00
2023-04-29T05:23:36.221Z,94958.00
2023-04-29T05:24:36.215Z,94958.00
2023-04-29T05:25:36.579Z,94960.00
2023-04-29T05:26:36.627Z,94962.00
2023-04-29T05:27:36.627Z,94962.00
2023-04-29T05:28:36.621Z,94964.00
2023-04-29T05:29:36.624Z,94968.00
2023-04-29T05:30:36.644Z,94970.00
2023-04-29T05:31:36.630Z,94968.00
2023-04-29T05:32:36.658Z,94966.00
2023-04-29T05:33:36.621Z,94970.00
2023-04-29T05:34:36.632Z,94966.00
2023-04-29T05:35:36.629Z,94964.00
2023-04-29T05:36:36.641Z,94962.00
2023-04-29T05:37:36.625Z,94966.00
2023-04-29T05:38:36.635Z,94968.00
2023-04-29T05:39:36.649Z,94970.00
2023-04-29T05:40:36.643Z,94970.00
2023-04-29T05:41:36.651Z,94972.00
2023-04-29T05:42:36.654Z,94972.00
2023-04-29T05:43:36.981Z,94974.00
2023-04-29T05:44:36.626Z,94972.00
2023-04-29T05:45:36.634Z,94974.00
2023-04-29T05:46:36.746Z,94974.00
2023-04-29T05:47:36.692Z,94970.00
2023-04-29T05:48:36.630Z,94970.00
2023-04-29T05:49:36.632Z,94972.00
2023-04-29T05:50:36.637Z,94970.00
2023-04-29T05:51:36.632Z,94972.00
2023-04-29T05:52:36.650Z,94972.00
2023-04-29T05:53:36.635Z,94970.00
2023-04-29T05:54:36.637Z,94968.00
2023-04-29T05:55:36.671Z,94972.00
2023-04-29T05:56:36.656Z,94964.00
2023-04-29T05:57:36.664Z,94968.00
2023-04-29T05:58:36.688Z,94966.00
2023-04-29T05:59:36.723Z,94966.00
2023-04-29T06:00:36.762Z,94966.00
2023-04-29T06:01:36.791Z,94970.00
2023-04-29T06:02:41.508Z,94974.00
2023-04-29T06:03:37.010Z,94974.00
2023-04-29T06:04:37.256Z,94974.00
2023-04-29T06:05:37.312Z,94976.00
2023-04-29T06:06:36.838Z,94974.00
2023-04-29T06:07:36.805Z,94976.00
2023-04-29T06:08:36.795Z,94976.00
2023-04-29T06:09:36.788Z,94972.00
2023-04-29T06:10:36.788Z,94976.00
2023-04-29T06:11:36.796Z,94976.00
2023-04-29T06:12:36.764Z,94976.00
2023-04-29T06:13:36.758Z,94978.00
2023-04-29T06:14:36.751Z,94976.00
2023-04-29T06:15:36.750Z,94978.00
2023-04-29T06:16:36.869Z,94978.00
2023-04-29T06:17:36.847Z,94978.00
2023-04-29T06:18:36.909Z,94978.00
2023-04-29T06:19:36.974Z,94982.00
2023-04-29T06:20:37.680Z,94980.00
2023-04-29T06:21:37.097Z,94978.00
2023-04-29T06:22:37.146Z,94978.00
2023-04-29T06:23:37.203Z,94978.00
2023-04-29T06:24:37.247Z,94976.00
2023-04-29T06:25:37.322Z,94980.00
2023-04-29T06:26:37.350Z,94982.00
2023-04-29T06:27:37.429Z,94982.00
2023-04-29T06:28:37.469Z,94982.00
2023-04-29T06:29:37.514Z,94983.00
2023-04-29T06:30:37.563Z,94983.00
2023-04-29T06:31:37.663Z,94983.00
2023-04-29T06:32:37.730Z,94985.00
2023-04-29T06:33:37.720Z,94985.00
2023-04-29T06:34:37.743Z,94985.00
2023-04-29T06:35:37.798Z,94989.00
2023-04-29T06:36:37.840Z,94993.00
2023-04-29T06:37:38.264Z,94991.00
2023-04-29T06:38:37.949Z,94989.00
2023-04-29T06:39:37.971Z,94991.00
2023-04-29T06:40:38.020Z,94989.00
2023-04-29T06:41:38.060Z,94989.00
2023-04-29T06:42:38.112Z,94983.00
2023-04-29T06:43:38.255Z,94985.00
2023-04-29T06:44:38.234Z,94987.00
2023-04-29T06:45:38.283Z,94985.00
2023-04-29T06:46:38.342Z,94983.00
2023-04-29T06:47:38.458Z,94983.00
2023-04-29T06:48:38.419Z,94980.00
2023-04-29T06:49:38.513Z,94982.00
2023-04-29T06:50:38.511Z,94982.00
2023-04-29T06:51:38.537Z,94978.00
2023-04-29T06:52:38.581Z,94978.00
2023-04-29T06:53:38.646Z,94976.00
2023-04-29T06:54:38.727Z,94974.00
2023-04-29T06:55:38.764Z,94976.00
2023-04-29T06:56:38.821Z,94972.00
2023-04-29T06:57:38.923Z,94972.00
2023-04-29T06:58:38.925Z,94972.00
2023-04-29T06:59:39.025Z,94972.00
2023-04-29T07:00:39.064Z,94974.00
2023-04-29T07:01:39.819Z,94974.00
2023-04-29T07:02:39.357Z,94976.00
2023-04-29T07:03:39.195Z,94976.00
2023-04-29T07:04:39.101Z,94974.00
2023-04-29T07:05:39.086Z,94974.00
2023-04-29T07:06:39.079Z,94976.00
2023-04-29T07:07:39.079Z,94972.00
2023-04-29T07:08:39.072Z,94974.00
2023-04-29T07:09:39.062Z,94974.00
2023-04-29T07:10:39.064Z,94972.00
2023-04-29T07:11:39.049Z,94972.00
2023-04-29T07:12:39.049Z,94972.00
2023-04-29T07:13:39.049Z,94972.00
2023-04-29T07:14:39.039Z,94972.00
2023-04-29T07:15:39.058Z,94970.00
2023-04-29T07:16:39.081Z,94970.00
2023-04-29T07:17:39.071Z,94968.00
2023-04-29T07:18:39.006Z,94966.00
2023-04-29T07:19:38.999Z,94968.00
2023-04-29T07:20:39.064Z,94966.00
2023-04-29T07:21:39.114Z,94966.00
2023-04-29T07:22:39.158Z,94970.00
2023-04-29T07:23:39.249Z,94968.00
2023-04-29T07:24:39.269Z,94966.00
2023-04-29T07:25:39.335Z,94962.00
2023-04-29T07:26:39.402Z,94964.00
2023-04-29T07:27:39.448Z,94964.00
2023-04-29T07:28:39.512Z,94962.00
2023-04-29T07:29:39.565Z,94958.00
2023-04-29T07:30:39.686Z,94954.00
2023-04-29T07:31:39.705Z,94954.00
2023-04-29T07:32:39.768Z,94954.00
2023-04-29T07:33:39.796Z,94950.00
2023-04-29T07:34:39.858Z,94950.00
2023-04-29T07:35:39.913Z,94950.00
2023-04-29T07:36:39.969Z,94950.00
2023-04-29T07:37:42.593Z,94954.00
2023-04-29T07:38:40.024Z,94954.00
2023-04-29T07:39:40.034Z,94956.00
2023-04-29T07:40:40.007Z,94960.00
2023-04-29T07:41:40.012Z,94958.00
2023-04-29T07:42:39.985Z,94954.00
2023-04-29T07:43:42.246Z,94954.00
2023-04-29T07:44:39.980Z,94956.00
2023-04-29T07:45:39.977Z,94948.00
2023-04-29T07:46:40.015Z,94952.00
2023-04-29T07:47:40.147Z,94952.00
2023-04-29T07:48:39.948Z,94952.00
2023-04-29T07:49:39.940Z,94948.00
2023-04-29T07:50:39.934Z,94946.00
2023-04-29T07:51:39.923Z,94944.00
2023-04-29T07:52:39.919Z,94942.00
2023-04-29T07:53:39.917Z,94942.00
2023-04-29T07:54:39.907Z,94940.00
2023-04-29T07:55:39.913Z,94940.00
2023-04-29T07:56:39.884Z,94938.00
2023-04-29T07:57:39.903Z,94942.00
2023-04-29T07:58:39.885Z,94940.00
2023-04-29T07:59:39.874Z,94938.00
2023-04-29T08:00:39.870Z,94942.00
2023-04-29T08:01:39.854Z,94938.00
2023-04-29T08:02:39.954Z,94940.00
2023-04-29T08:03:41.495Z,94938.00
2023-04-29T08:04:40.046Z,94938.00
2023-04-29T08:05:39.988Z,94938.00
2023-04-29T08:06:39.827Z,94936.00
2023-04-29T08:07:39.825Z,94938.00
2023-04-29T08:08:39.828Z,94938.00
2023-04-29T08:09:39.792Z,94936.00
2023-04-29T08:10:39.788Z,94936.00
2023-04-29T08:11:39.780Z,94933.00
2023-04-29T08:12:39.800Z,94936.00
2023-04-29T08:13:39.770Z,94936.00
2023-04-29T08:14:39.766Z,94933.00
2023-04-29T08:15:40.024Z,94933.00
2023-04-29T08:16:39.777Z,94931.00
2023-04-29T08:17:39.783Z,94929.00
2023-04-29T08:18:39.749Z,94933.00
2023-04-29T08:19:39.753Z,94931.00
2023-04-29T08:20:39.720Z,94929.00
2023-04-29T08:21:39.724Z,94931.00
2023-04-29T08:22:39.713Z,94927.00
2023-04-29T08:23:39.703Z,94927.00
2023-04-29T08:24:39.740Z,94925.00
2023-04-29T08:25:39.806Z,94921.00
2023-04-29T08:26:39.857Z,94919.00
2023-04-29T08:27:39.940Z,94921.00
2023-04-29T08:28:39.970Z,94925.00
2023-04-29T08:29:40.024Z,94927.00
2023-04-29T08:30:40.068Z,94933.00
2023-04-29T08:31:40.168Z,94940.00
2023-04-29T08:32:40.184Z,94940.00
2023-04-29T08:33:40.230Z,94946.00
2023-04-29T08:34:40.275Z,94946.00
2023-04-29T08:35:40.338Z,94946.00
2023-04-29T08:36:40.374Z,94944.00
2023-04-29T08:37:40.433Z,94940.00
2023-04-29T08:38:40.487Z,94938.00
2023-04-29T08:39:40.539Z,94938.00
2023-04-29T08:40:40.601Z,94936.00
2023-04-29T08:41:40.665Z,94936.00
2023-04-29T08:42:40.726Z,94935.00
2023-04-29T08:43:40.947Z,94935.00
2023-04-29T08:44:40.930Z,94933.00
2023-04-29T08:45:40.919Z,94935.00
2023-04-29T08:46:40.963Z,94936.00
2023-04-29T08:47:41.772Z,94935.00
2023-04-29T08:48:43.342Z,94935.00
2023-04-29T08:49:41.075Z,94933.00
2023-04-29T08:50:41.092Z,94931.00
2023-04-29T08:51:41.082Z,94931.00
2023-04-29T08:52:41.053Z,94935.00
2023-04-29T08:53:41.057Z,94935.00
2023-04-29T08:54:41.032Z,94933.00
2023-04-29T08:55:41.027Z,94933.00
2023-04-29T08:56:41.027Z,94931.00
2023-04-29T08:57:41.012Z,94933.00
2023-04-29T08:58:41.015Z,94933.00
2023-04-29T08:59:41.009Z,94931.00
2023-04-29T09:00:41.031Z,94931.00
2023-04-29T09:01:41.108Z,94933.00
2023-04-29T09:02:41.260Z,94931.00
2023-04-29T09:03:41.943Z,94927.00
2023-04-29T09:04:42.087Z,94925.00
2023-04-29T09:05:41.293Z,94923.00
2023-04-29T09:06:41.754Z,94921.00
2023-04-29T09:07:41.772Z,94921.00
2023-04-29T09:08:41.760Z,94917.00
2023-04-29T09:09:41.747Z,94915.00
2023-04-29T09:10:41.745Z,94915.00
2023-04-29T09:11:41.745Z,94915.00
2023-04-29T09:12:41.746Z,94913.00
2023-04-29T09:13:41.756Z,94915.00
2023-04-29T09:14:41.761Z,94913.00
2023-04-29T09:15:41.811Z,94917.00
2023-04-29T09:16:41.890Z,94915.00
2023-04-29T09:17:41.912Z,94915.00
2023-04-29T09:18:41.946Z,94915.00
2023-04-29T09:19:41.999Z,94915.00
2023-04-29T09:20:42.049Z,94917.00
2023-04-29T09:21:42.100Z,94919.00
2023-04-29T09:22:42.159Z,94919.00
2023-04-29T09:23:42.263Z,94919.00
2023-04-29T09:24:42.255Z,94921.00
2023-04-29T09:25:42.326Z,94919.00
2023-04-29T09:26:42.816Z,94919.00
2023-04-29T09:27:42.756Z,94913.00
2023-04-29T09:28:42.804Z,94913.00
2023-04-29T09:29:42.774Z,94911.00
2023-04-29T09:30:42.766Z,94911.00
2023-04-29T09:31:42.834Z,94913.00
2023-04-29T09:32:42.822Z,94911.00
2023-04-29T09:33:42.765Z,94909.00
2023-04-29T09:34:42.802Z,94909.00
2023-04-29T09:35:42.854Z,94907.00
2023-04-29T09:36:42.900Z,94907.00
2023-04-29T09:37:42.948Z,94909.00
2023-04-29T09:38:44.699Z,94907.00
2023-04-29T09:39:43.031Z,94907.00
2023-04-29T09:40:57.421Z,94905.00
2023-04-29T09:41:42.998Z,94905.00
2023-04-29T09:42:42.973Z,94907.00
2023-04-29T09:43:42.972Z,94903.00
2023-04-29T09:44:42.963Z,94903.00
2023-04-29T09:45:42.972Z,94901.00
2023-04-29T09:46:42.948Z,94901.00
2023-04-29T09:47:42.990Z,94901.00
2023-04-29T09:48:42.939Z,94897.00
2023-04-29T09:49:42.927Z,94897.00
2023-04-29T09:50:42.923Z,94897.00
2023-04-29T09:51:42.922Z,94897.00
2023-04-29T09:52:42.907Z,94889.00
2023-04-29T09:53:42.910Z,94887.00
2023-04-29T09:54:42.900Z,94885.00
2023-04-29T09:55:42.916Z,94885.00
2023-04-29T09:56:42.888Z,94883.00
2023-04-29T09:57:45.233Z,94882.00
2023-04-29T09:58:42.873Z,94882.00
2023-04-29T09:59:42.867Z,94882.00
2023-04-29T10:00:42.863Z,94883.00
2023-04-29T10:01:42.881Z,94880.00
2023-04-29T10:02:42.938Z,94882.00
2023-04-29T10:03:43.018Z,94885.00
2023-04-29T10:04:42.935Z,94883.00
2023-04-29T10:05:42.828Z,94887.00
2023-04-29T10:06:42.820Z,94897.00
2023-04-29T10:07:42.807Z,94899.00
2023-04-29T10:08:42.797Z,94897.00
2023-04-29T10:09:42.792Z,94899.00
2023-04-29T10:10:42.788Z,94899.00
2023-04-29T10:11:42.819Z,94899.00
2023-04-29T10:12:42.781Z,94901.00
2023-04-29T10:13:42.790Z,94905.00
2023-04-29T10:14:42.783Z,94905.00
2023-04-29T10:15:43.026Z,94907.00
2023-04-29T10:16:42.792Z,94905.00
2023-04-29T10:17:42.783Z,94903.00
2023-04-29T10:18:42.858Z,94905.00
2023-04-29T10:19:42.785Z,94899.00
2023-04-29T10:20:42.797Z,94897.00
2023-04-29T10:21:42.792Z,94889.00
2023-04-29T10:22:42.791Z,94885.00
2023-04-29T10:23:42.700Z,94883.00
2023-04-29T10:24:43.125Z,94882.00
2023-04-29T10:25:43.126Z,94882.00
2023-04-29T10:26:43.148Z,94883.00
2023-04-29T10:27:43.157Z,94883.00
2023-04-29T10:28:43.123Z,94885.00
2023-04-29T10:29:43.123Z,94887.00
2023-04-29T10:30:43.114Z,94887.00
2023-04-29T10:31:43.206Z,94887.00
2023-04-29T10:32:50.622Z,94885.00
2023-04-29T10:33:43.206Z,94883.00
2023-04-29T10:34:43.196Z,94883.00
2023-04-29T10:35:43.188Z,94880.00
2023-04-29T10:36:43.188Z,94878.00
2023-04-29T10:37:43.179Z,94876.00
2023-04-29T10:38:43.180Z,94876.00
2023-04-29T10:39:43.166Z,94876.00
2023-04-29T10:40:43.158Z,94872.00
2023-04-29T10:41:43.148Z,94874.00
2023-04-29T10:42:43.145Z,94870.00
2023-04-29T10:43:43.200Z,94870.00
2023-04-29T10:44:43.126Z,94870.00
2023-04-29T10:45:43.121Z,94870.00
2023-04-29T10:46:43.189Z,94872.00
2023-04-29T10:47:43.169Z,94868.00
2023-04-29T10:48:43.128Z,94868.00
2023-04-29T10:49:43.127Z,94870.00
2023-04-29T10:50:43.124Z,94868.00
2023-04-29T10:51:43.131Z,94864.00
2023-04-29T10:52:43.118Z,94864.00
2023-04-29T10:53:43.121Z,94864.00
2023-04-29T10:54:44.146Z,94860.00
2023-04-29T10:55:43.130Z,94862.00
2023-04-29T10:56:43.606Z,94864.00
2023-04-29T10:57:43.119Z,94864.00
2023-04-29T10:58:43.135Z,94866.00
2023-04-29T10:59:43.145Z,94864.00
2023-04-29T11:00:43.149Z,94862.00
2023-04-29T11:01:43.126Z,94864.00
2023-04-29T11:02:43.169Z,94864.00
2023-04-29T11:03:43.292Z,94864.00
2023-04-29T11:04:43.174Z,94864.00
2023-04-29T11:05:43.116Z,94862.00
2023-04-29T11:06:43.140Z,94864.00
2023-04-29T11:07:43.118Z,94860.00
2023-04-29T11:08:43.150Z,94856.00
2023-04-29T11:09:43.123Z,94850.00
2023-04-29T11:10:43.125Z,94848.00
2023-04-29T11:11:43.141Z,94844.00
2023-04-29T11:12:43.124Z,94844.00
2023-04-29T11:13:43.129Z,94846.00
2023-04-29T11:14:43.161Z,94846.00
2023-04-29T11:15:43.188Z,94844.00
2023-04-29T11:16:43.270Z,94842.00
2023-04-29T11:17:43.329Z,94846.00
2023-04-29T11:18:43.311Z,94848.00
2023-04-29T11:19:43.369Z,94848.00
2023-04-29T11:20:43.422Z,94854.00
2023-04-29T11:21:43.496Z,94852.00
2023-04-29T11:22:43.540Z,94852.00
2023-04-29T11:23:43.566Z,94850.00
2023-04-29T11:24:43.600Z,94850.00
2023-04-29T11:25:43.648Z,94850.00
2023-04-29T11:26:43.717Z,94852.00
2023-04-29T11:27:43.728Z,94850.00
2023-04-29T11:28:43.780Z,94852.00
2023-04-29T11:29:43.817Z,94854.00
2023-04-29T11:30:43.879Z,94856.00
2023-04-29T11:31:44.111Z,94858.00
2023-04-29T11:32:43.976Z,94856.00
2023-04-29T11:33:43.996Z,94858.00
2023-04-29T11:34:44.052Z,94864.00
2023-04-29T11:35:44.081Z,94866.00
2023-04-29T11:36:45.270Z,94862.00
2023-04-29T11:37:44.118Z,94864.00
2023-04-29T11:38:44.108Z,94860.00
2023-04-29T11:39:44.107Z,94866.00
2023-04-29T11:40:44.100Z,94864.00
2023-04-29T11:41:44.098Z,94862.00
2023-04-29T11:42:44.118Z,94860.00
2023-04-29T11:43:44.077Z,94862.00
2023-04-29T11:44:44.067Z,94860.00
2023-04-29T11:45:44.109Z,94860.00
2023-04-29T11:46:44.064Z,94856.00
2023-04-29T11:47:44.113Z,94852.00